Time;durP1;ratioP1;P1;durP2;ratioP2;P2;SDS_P1;SDS_P2;PMS_P1;PMS_P2;Temp;Humidity;BMP_temperature;BMP_pressure;BME280_temperature;BME280_humidity;BME280_pressure;Samples;Min_cycle;Max_cycle;Signal;HPM_P1;HPM_P2
2023/02/17 00:01:19;;;;;;;10.43;2.70;;;10.40;48.50;;;;;;5075739;28;20151;-78
2023/02/17 00:03:47;;;;;;;9.65;2.55;;;10.30;48.80;;;;;;5057518;28;20020;-78
2023/02/17 00:06:15;;;;;;;8.30;2.53;;;10.40;48.60;;;;;;5057408;28;20060;-76
2023/02/17 00:08:40;;;;;;;7.60;2.90;;;10.40;48.70;;;;;;5057774;28;20021;-78
2023/02/17 00:11:06;;;;;;;6.30;2.80;;;10.40;48.70;;;;;;5041014;28;20032;-78
2023/02/17 00:13:32;;;;;;;11.50;2.42;;;10.40;48.80;;;;;;5057807;28;20029;-79
2023/02/17 00:15:58;;;;;;;6.25;2.38;;;10.50;49.00;;;;;;5056790;28;20122;-79
2023/02/17 00:18:24;;;;;;;4.32;2.90;;;10.40;49.20;;;;;;5056807;28;20048;-78
2023/02/17 00:20:50;;;;;;;8.02;2.67;;;10.50;49.40;;;;;;5057225;28;20075;-80
2023/02/17 00:23:17;;;;;;;10.43;2.63;;;10.50;49.30;;;;;;5056917;28;20025;-80
2023/02/17 00:25:43;;;;;;;9.25;2.80;;;10.50;49.60;;;;;;5057554;28;20477;-78
2023/02/17 00:28:08;;;;;;;9.40;2.67;;;10.40;49.80;;;;;;5057020;28;20032;-80
2023/02/17 00:30:36;;;;;;;11.95;2.80;;;10.40;50.00;;;;;;5056707;28;20385;-79
2023/02/17 00:33:02;;;;;;;9.23;3.53;;;10.40;50.30;;;;;;5073777;28;20052;-80
2023/02/17 00:35:27;;;;;;;10.95;3.50;;;10.40;51.00;;;;;;5057252;28;20078;-80
2023/02/17 00:37:53;;;;;;;15.70;3.55;;;10.40;51.20;;;;;;5057157;28;20110;-76
2023/02/17 00:40:18;;;;;;;8.32;3.03;;;10.40;51.40;;;;;;5057039;28;20044;-79
2023/02/17 00:42:44;;;;;;;8.00;2.88;;;10.40;51.40;;;;;;5056870;28;20031;-76
2023/02/17 00:45:10;;;;;;;10.82;3.20;;;10.40;51.30;;;;;;5056923;28;20031;-77
2023/02/17 00:47:35;;;;;;;11.43;2.60;;;10.40;51.20;;;;;;5056749;28;20021;-80
2023/02/17 00:50:01;;;;;;;14.25;3.50;;;10.30;51.50;;;;;;5074406;28;20058;-81
2023/02/17 00:52:27;;;;;;;12.70;3.22;;;10.30;51.60;;;;;;5039502;28;20116;-80
2023/02/17 00:54:53;;;;;;;14.52;3.28;;;10.30;51.80;;;;;;5056764;28;20033;-79
2023/02/17 00:57:18;;;;;;;7.25;3.47;;;10.30;51.80;;;;;;5057036;28;20036;-80
2023/02/17 00:59:44;;;;;;;9.45;3.47;;;10.20;52.30;;;;;;5056632;28;20024;-80
2023/02/17 01:02:10;;;;;;;14.45;3.88;;;10.20;52.20;;;;;;5056870;28;20177;-79
2023/02/17 01:04:35;;;;;;;11.80;3.83;;;10.20;52.10;;;;;;5039675;28;20124;-78
2023/02/17 01:07:01;;;;;;;14.75;3.45;;;10.20;52.00;;;;;;5057117;28;20037;-79
2023/02/17 01:09:26;;;;;;;9.40;2.97;;;10.20;52.40;;;;;;5060533;28;20373;-80
2023/02/17 01:11:52;;;;;;;8.43;3.55;;;10.10;52.70;;;;;;5057607;28;20078;-79
2023/02/17 01:14:17;;;;;;;9.57;3.63;;;10.10;53.00;;;;;;5056630;28;20020;-79
2023/02/17 01:16:46;;;;;;;9.10;3.40;;;10.10;53.00;;;;;;5056475;28;20392;-80
2023/02/17 01:19:15;;;;;;;7.85;3.63;;;10.10;53.40;;;;;;5056230;28;20092;-79
2023/02/17 01:21:41;;;;;;;7.95;3.55;;;10.00;53.30;;;;;;5039357;28;20345;-76
2023/02/17 01:24:07;;;;;;;12.18;3.60;;;10.10;53.40;;;;;;5056236;28;20500;-79
2023/02/17 01:26:35;;;;;;;12.57;4.05;;;10.10;53.70;;;;;;5039710;28;20024;-79
2023/02/17 01:29:01;;;;;;;10.27;3.95;;;10.00;53.80;;;;;;5055787;28;20139;-78
2023/02/17 01:31:27;;;;;;;10.23;3.45;;;10.00;53.90;;;;;;5056022;28;20031;-75
2023/02/17 01:33:59;;;;;;;11.88;3.90;;;10.00;54.10;;;;;;5055943;28;20021;-78
2023/02/17 01:36:25;;;;;;;7.93;3.55;;;10.00;54.60;;;;;;5055904;28;20145;-78
2023/02/17 01:38:52;;;;;;;12.30;3.65;;;10.00;54.60;;;;;;5055708;28;20107;-77
2023/02/17 01:41:19;;;;;;;8.90;3.50;;;9.90;54.90;;;;;;5038758;28;20060;-78
2023/02/17 01:44:07;;;;;;;16.23;4.13;;;9.90;55.20;;;;;;5055882;28;20078;-77
2023/02/17 01:46:34;;;;;;;11.27;4.20;;;9.90;55.20;;;;;;5055634;28;20123;-76
2023/02/17 01:49:02;;;;;;;10.20;3.60;;;9.90;55.60;;;;;;5055622;28;20038;-76
2023/02/17 01:51:32;;;;;;;9.35;3.63;;;9.90;56.20;;;;;;5055585;28;20021;-76
2023/02/17 01:54:07;;;;;;;12.18;3.65;;;9.90;56.50;;;;;;5055481;28;20024;-78
2023/02/17 01:56:35;;;;;;;6.90;2.67;;;9.90;56.80;;;;;;5055586;28;20025;-77
2023/02/17 01:59:07;;;;;;;29.48;4.20;;;9.90;57.20;;;;;;5055277;28;20032;-76
2023/02/17 02:01:33;;;;;;;16.92;4.05;;;10.00;57.80;;;;;;5055346;28;20512;-76
2023/02/17 02:04:03;;;;;;;12.63;3.92;;;9.90;57.90;;;;;;5055247;28;20128;-78
2023/02/17 02:06:32;;;;;;;9.98;3.30;;;10.00;58.30;;;;;;5055098;28;20392;-77
2023/02/17 02:09:17;;;;;;;8.73;2.72;;;10.00;58.60;;;;;;5054967;28;20136;-78
2023/02/17 02:11:43;;;;;;;9.63;2.50;;;10.10;58.70;;;;;;5055432;28;20024;-76
2023/02/17 02:14:10;;;;;;;12.77;3.10;;;10.00;58.40;;;;;;5055099;28;20397;-77
2023/02/17 02:16:57;;;;;;;8.40;2.97;;;10.10;58.60;;;;;;5054525;28;20079;-76
2023/02/17 02:19:51;;;;;;;7.45;3.22;;;10.10;58.60;;;;;;5050432;28;20028;-78
2023/02/17 02:22:29;;;;;;;6.53;2.63;;;10.10;58.00;;;;;;5055278;28;20499;-78
2023/02/17 02:25:21;;;;;;;7.18;2.85;;;10.20;57.90;;;;;;5055071;28;20028;-78
2023/02/17 02:28:01;;;;;;;8.80;2.92;;;10.10;58.30;;;;;;5055101;28;20020;-77
2023/02/17 02:30:49;;;;;;;4.80;2.58;;;10.10;58.60;;;;;;5055044;28;20032;-79
2023/02/17 02:33:42;;;;;;;9.10;2.80;;;10.10;59.80;;;;;;5054990;28;20035;-78
2023/02/17 02:36:26;;;;;;;6.22;2.30;;;10.20;59.10;;;;;;5073204;28;20024;-75
2023/02/17 02:39:03;;;;;;;8.45;2.25;;;10.10;59.00;;;;;;5040390;28;20492;-75
2023/02/17 02:42:01;;;;;;;13.43;2.88;;;10.20;58.40;;;;;;5054987;28;20166;-75
2023/02/17 02:44:26;;;;;;;5.90;2.20;;;10.10;58.40;;;;;;5050722;28;20029;-77
2023/02/17 02:47:00;;;;;;;8.00;2.88;;;10.10;58.50;;;;;;5055238;28;20235;-75
2023/02/17 02:49:27;;;;;;;4.63;2.25;;;10.10;58.20;;;;;;5054980;28;20021;-76
2023/02/17 02:52:10;;;;;;;8.05;2.55;;;10.10;57.80;;;;;;5055008;28;20123;-76
2023/02/17 02:55:00;;;;;;;4.90;1.98;;;10.10;57.40;;;;;;5054780;28;20036;-80
2023/02/17 02:58:05;;;;;;;6.25;2.58;;;10.10;57.20;;;;;;5057071;28;20017;-81
2023/02/17 03:01:01;;;;;;;7.07;2.38;;;10.00;57.00;;;;;;5058984;28;20041;-79
2023/02/17 03:03:46;;;;;;;3.20;1.73;;;10.00;57.30;;;;;;5059275;28;20051;-75
2023/02/17 03:06:26;;;;;;;6.57;2.25;;;10.00;57.30;;;;;;5038033;28;20132;-75
2023/02/17 03:08:59;;;;;;;4.80;2.00;;;10.00;57.80;;;;;;5038478;28;20025;-76
2023/02/17 03:11:31;;;;;;;5.53;1.95;;;10.10;57.80;;;;;;5057055;28;20051;-79
2023/02/17 03:14:07;;;;;;;5.45;2.38;;;10.00;57.80;;;;;;5039047;28;20017;-76
2023/02/17 03:16:35;;;;;;;5.47;2.28;;;10.00;58.10;;;;;;5039759;28;20029;-75
2023/02/17 03:19:01;;;;;;;6.35;2.30;;;10.00;58.50;;;;;;5044357;28;20045;-76
2023/02/17 03:21:52;;;;;;;6.10;2.58;;;9.90;59.10;;;;;;5039233;28;20056;-77
2023/02/17 03:24:18;;;;;;;8.93;2.92;;;10.00;59.40;;;;;;5038062;28;20037;-79
2023/02/17 03:26:44;;;;;;;9.73;2.85;;;9.90;59.80;;;;;;5072349;28;20021;-76
2023/02/17 03:29:09;;;;;;;10.57;2.67;;;10.00;60.10;;;;;;5038802;28;20428;-77
2023/02/17 03:31:35;;;;;;;5.28;2.92;;;10.00;60.00;;;;;;5038388;28;20025;-75
2023/02/17 03:34:02;;;;;;;8.10;3.30;;;10.00;60.00;;;;;;5021656;28;20024;-79
2023/02/17 03:36:28;;;;;;;5.65;3.00;;;10.00;60.00;;;;;;5038165;28;20029;-79
2023/02/17 03:38:55;;;;;;;11.70;3.05;;;10.00;59.90;;;;;;5055746;28;20434;-76
2023/02/17 03:41:21;;;;;;;6.55;2.95;;;10.00;59.90;;;;;;5038188;28;20390;-74
2023/02/17 03:43:46;;;;;;;12.50;4.20;;;10.00;60.00;;;;;;5038268;28;20024;-79
2023/02/17 03:46:14;;;;;;;5.07;3.05;;;10.00;59.90;;;;;;5037928;28;20112;-76
2023/02/17 03:48:39;;;;;;;6.53;3.15;;;9.90;60.10;;;;;;5037890;28;20054;-75
2023/02/17 03:51:20;;;;;;;11.57;3.92;;;9.90;60.20;;;;;;5038303;28;20115;-74
2023/02/17 03:53:46;;;;;;;13.63;4.00;;;10.00;60.10;;;;;;5038004;28;20410;-76
2023/02/17 03:56:13;;;;;;;7.85;3.58;;;9.90;60.40;;;;;;5037890;28;20122;-77
2023/02/17 03:58:39;;;;;;;7.50;3.35;;;10.00;60.40;;;;;;5037487;28;20478;-75
2023/02/17 04:01:07;;;;;;;13.25;3.15;;;10.00;60.50;;;;;;5037772;28;20040;-76
2023/02/17 04:03:33;;;;;;;8.80;3.50;;;10.00;61.40;;;;;;5055382;28;20017;-78
2023/02/17 04:05:59;;;;;;;9.80;3.60;;;9.90;61.50;;;;;;5055318;28;20099;-77
2023/02/17 04:08:26;;;;;;;8.80;3.08;;;9.90;61.70;;;;;;5055712;28;20047;-78
2023/02/17 04:10:58;;;;;;;8.85;3.30;;;9.90;62.10;;;;;;5037524;28;20493;-78
2023/02/17 04:13:25;;;;;;;7.13;2.30;;;9.90;62.10;;;;;;5037588;28;20021;-79
2023/02/17 04:15:52;;;;;;;9.65;3.55;;;9.90;62.30;;;;;;5055575;28;20028;-79
2023/02/17 04:18:18;;;;;;;6.60;3.00;;;9.90;62.40;;;;;;5037245;28;20029;-78
2023/02/17 04:20:47;;;;;;;11.85;3.45;;;9.90;62.40;;;;;;5037106;28;20056;-78
2023/02/17 04:23:13;;;;;;;10.77;2.65;;;9.90;62.40;;;;;;5037413;28;20029;-78
2023/02/17 04:25:39;;;;;;;5.18;2.63;;;9.90;62.40;;;;;;5037409;28;20033;-78
2023/02/17 04:28:05;;;;;;;8.38;3.22;;;9.90;61.80;;;;;;5036873;28;20025;-77
2023/02/17 04:30:32;;;;;;;5.22;2.78;;;9.90;61.70;;;;;;5036925;28;20069;-79
2023/02/17 04:32:58;;;;;;;4.78;2.80;;;9.80;61.50;;;;;;5036743;28;20036;-77
2023/02/17 04:35:24;;;;;;;9.10;2.15;;;9.80;61.20;;;;;;5036835;28;20021;-78
2023/02/17 04:37:50;;;;;;;5.13;2.22;;;9.90;60.60;;;;;;5037173;28;20121;-78
2023/02/17 04:40:16;;;;;;;6.20;2.97;;;9.90;60.30;;;;;;5036911;28;20112;-79
2023/02/17 04:42:42;;;;;;;6.15;2.45;;;9.90;60.10;;;;;;5036962;28;20572;-79
2023/02/17 04:45:08;;;;;;;7.05;2.55;;;9.90;59.90;;;;;;5037214;28;20116;-79
2023/02/17 04:47:34;;;;;;;6.18;2.33;;;9.90;59.70;;;;;;5036731;28;20059;-79
2023/02/17 04:50:00;;;;;;;6.45;2.55;;;10.00;58.70;;;;;;5036983;28;20032;-80
2023/02/17 04:52:26;;;;;;;7.60;3.17;;;10.10;58.00;;;;;;5037237;28;20028;-78
2023/02/17 04:54:55;;;;;;;7.13;2.85;;;10.10;57.70;;;;;;5054663;28;20028;-77
2023/02/17 04:57:24;;;;;;;4.80;2.55;;;10.10;57.80;;;;;;5036324;28;20504;-79
2023/02/17 04:59:49;;;;;;;11.40;2.40;;;10.10;57.10;;;;;;5036289;28;20116;-80
2023/02/17 05:02:15;;;;;;;4.75;2.28;;;10.10;57.40;;;;;;5036817;28;20116;-78
2023/02/17 05:04:40;;;;;;;5.20;2.25;;;10.00;57.50;;;;;;5036260;28;20477;-77
2023/02/17 05:07:06;;;;;;;4.95;2.15;;;10.00;57.80;;;;;;5054311;28;20032;-79
2023/02/17 05:09:31;;;;;;;5.00;2.40;;;9.90;58.20;;;;;;5035918;28;20052;-79
2023/02/17 05:11:57;;;;;;;4.55;2.13;;;9.90;58.20;;;;;;5036394;28;20071;-78
2023/02/17 05:14:22;;;;;;;5.10;2.50;;;9.90;57.90;;;;;;5053935;28;20393;-77
2023/02/17 05:16:48;;;;;;;7.22;2.10;;;9.90;57.90;;;;;;5053775;28;20021;-78
2023/02/17 05:19:14;;;;;;;4.68;2.30;;;9.90;57.90;;;;;;5035596;28;20055;-78
2023/02/17 05:21:39;;;;;;;5.50;2.65;;;9.90;57.30;;;;;;5019688;28;20067;-78
2023/02/17 05:24:05;;;;;;;7.28;3.60;;;9.90;57.00;;;;;;5035998;28;20484;-78
2023/02/17 05:26:31;;;;;;;9.88;2.95;;;9.90;56.50;;;;;;5054269;28;20029;-80
2023/02/17 05:28:57;;;;;;;4.55;1.85;;;9.90;56.30;;;;;;5035734;28;20074;-77
2023/02/17 05:31:22;;;;;;;8.65;2.75;;;9.90;55.60;;;;;;5035547;28;20029;-76
2023/02/17 05:33:48;;;;;;;3.05;1.85;;;10.00;55.30;;;;;;5035820;28;20076;-78
2023/02/17 05:36:13;;;;;;;7.00;2.08;;;10.00;55.50;;;;;;5035646;28;20029;-76
2023/02/17 05:38:39;;;;;;;6.03;2.10;;;10.00;55.40;;;;;;5035609;28;20041;-76
2023/02/17 05:41:05;;;;;;;5.72;1.70;;;10.00;55.40;;;;;;5035728;28;20112;-76
2023/02/17 05:43:31;;;;;;;5.38;1.85;;;10.00;55.50;;;;;;5035610;28;20122;-78
2023/02/17 05:46:02;;;;;;;5.53;1.80;;;10.00;55.30;;;;;;5035776;28;20469;-77
2023/02/17 05:48:27;;;;;;;5.35;1.75;;;10.00;55.30;;;;;;5035568;28;20025;-76
2023/02/17 05:50:53;;;;;;;4.95;1.77;;;10.10;55.40;;;;;;5051909;28;20108;-75
2023/02/17 05:53:18;;;;;;;5.40;2.47;;;10.00;55.30;;;;;;5053084;28;20029;-78
2023/02/17 05:55:44;;;;;;;4.57;1.60;;;10.00;55.30;;;;;;5052764;28;20520;-75
2023/02/17 05:58:10;;;;;;;4.80;1.42;;;10.00;55.50;;;;;;5035815;28;20033;-78
2023/02/17 06:00:35;;;;;;;5.60;1.52;;;10.00;55.40;;;;;;5035218;28;20043;-78
2023/02/17 06:03:01;;;;;;;5.78;1.90;;;10.00;55.40;;;;;;5035641;28;20021;-77
2023/02/17 06:05:26;;;;;;;4.95;1.75;;;10.10;55.50;;;;;;5035210;28;20044;-80
2023/02/17 06:07:52;;;;;;;4.28;1.90;;;10.00;55.20;;;;;;5035286;28;20029;-80
2023/02/17 06:10:18;;;;;;;5.47;1.67;;;10.00;55.10;;;;;;5052962;28;20029;-77
2023/02/17 06:12:43;;;;;;;5.20;1.73;;;10.00;55.40;;;;;;5053020;28;20029;-77
2023/02/17 06:15:09;;;;;;;5.32;1.88;;;10.00;55.40;;;;;;5034865;28;20445;-76
2023/02/17 06:17:35;;;;;;;2.20;1.60;;;10.00;55.80;;;;;;5035234;28;20112;-76
2023/02/17 06:20:00;;;;;;;3.50;1.70;;;10.00;56.00;;;;;;5052919;28;20028;-77
2023/02/17 06:22:26;;;;;;;6.90;1.92;;;10.00;56.50;;;;;;5035121;28;20040;-76
2023/02/17 06:24:52;;;;;;;5.60;1.90;;;10.00;56.60;;;;;;5053003;28;20036;-78
2023/02/17 06:27:18;;;;;;;7.18;2.17;;;10.00;56.60;;;;;;5034858;28;20115;-76
2023/02/17 06:29:43;;;;;;;2.60;1.58;;;10.00;56.60;;;;;;5034788;28;20108;-78
2023/02/17 06:32:09;;;;;;;5.68;1.65;;;10.00;56.70;;;;;;5037031;28;20381;-77
2023/02/17 06:34:35;;;;;;;5.43;1.98;;;10.10;56.80;;;;;;5039197;28;20071;-76
2023/02/17 06:37:00;;;;;;;6.72;2.13;;;10.00;57.10;;;;;;5038989;28;20100;-75
2023/02/17 06:39:26;;;;;;;5.88;2.00;;;10.00;57.50;;;;;;5038956;28;20126;-74
2023/02/17 06:41:52;;;;;;;4.13;1.90;;;10.00;57.70;;;;;;5056739;28;20052;-75
2023/02/17 06:44:18;;;;;;;7.35;2.30;;;10.00;58.00;;;;;;5038767;28;20397;-76
2023/02/17 06:46:46;;;;;;;3.55;1.73;;;10.00;58.10;;;;;;5039350;28;20115;-75
2023/02/17 06:49:13;;;;;;;5.00;2.00;;;10.00;58.80;;;;;;5038816;28;20067;-74
2023/02/17 06:51:39;;;;;;;7.82;1.98;;;10.10;58.30;;;;;;5039015;28;20048;-77
2023/02/17 06:54:05;;;;;;;6.20;2.25;;;10.10;58.40;;;;;;5039028;28;20086;-77
2023/02/17 06:56:30;;;;;;;4.72;2.00;;;10.00;58.40;;;;;;5039003;28;20370;-78
2023/02/17 06:58:56;;;;;;;3.13;1.95;;;10.10;58.80;;;;;;5056572;28;20162;-77
2023/02/17 07:01:25;;;;;;;5.65;1.90;;;10.10;58.90;;;;;;5038678;28;20524;-78
2023/02/17 07:03:51;;;;;;;5.25;2.05;;;10.10;59.10;;;;;;5056585;28;20094;-79
2023/02/17 07:06:17;;;;;;;8.95;2.30;;;10.10;59.10;;;;;;5056563;28;20045;-79
2023/02/17 07:08:43;;;;;;;5.32;2.20;;;10.10;59.10;;;;;;5057379;28;20029;-80
2023/02/17 07:11:10;;;;;;;6.38;2.40;;;10.10;59.20;;;;;;5056448;28;20025;-80
2023/02/17 07:13:36;;;;;;;4.70;2.40;;;10.20;59.10;;;;;;5038815;28;20112;-78
2023/02/17 07:16:03;;;;;;;5.13;2.40;;;10.20;59.10;;;;;;5056699;28;20080;-81
2023/02/17 07:18:29;;;;;;;7.00;2.22;;;10.20;59.10;;;;;;5038428;28;20025;-75
2023/02/17 07:20:55;;;;;;;5.32;2.20;;;10.20;59.40;;;;;;5038482;28;20037;-79
2023/02/17 07:23:21;;;;;;;5.35;2.10;;;10.20;59.30;;;;;;5038267;28;20033;-76
2023/02/17 07:25:46;;;;;;;10.75;2.35;;;10.30;59.50;;;;;;5038174;28;20060;-76
2023/02/17 07:28:12;;;;;;;4.70;1.77;;;10.20;60.00;;;;;;5055891;28;20462;-80
2023/02/17 07:30:39;;;;;;;5.57;2.40;;;10.20;60.50;;;;;;5038162;28;20393;-79
2023/02/17 07:33:05;;;;;;;8.98;2.58;;;10.10;61.30;;;;;;5055676;28;20032;-77
2023/02/17 07:35:31;;;;;;;7.35;2.28;;;10.20;61.70;;;;;;5037714;28;20477;-76
2023/02/17 07:37:57;;;;;;;4.95;2.10;;;10.20;62.10;;;;;;5037885;28;20036;-76
2023/02/17 07:40:23;;;;;;;6.65;1.90;;;10.20;62.30;;;;;;5055434;28;20036;-77
2023/02/17 07:42:49;;;;;;;3.95;1.88;;;10.10;63.20;;;;;;5055384;28;20037;-75
2023/02/17 07:45:15;;;;;;;7.00;2.30;;;10.10;63.20;;;;;;5055883;28;20021;-78
2023/02/17 07:47:41;;;;;;;7.72;2.60;;;10.10;63.50;;;;;;5021329;28;20388;-75
2023/02/17 07:50:08;;;;;;;3.47;2.00;;;10.20;63.50;;;;;;5037753;28;20021;-76
2023/02/17 07:52:33;;;;;;;4.38;2.08;;;10.30;63.60;;;;;;5038110;28;20052;-78
2023/02/17 07:54:59;;;;;;;3.88;2.28;;;10.30;63.50;;;;;;5037415;28;20086;-75
2023/02/17 07:57:24;;;;;;;5.60;2.30;;;10.30;63.30;;;;;;5037605;28;20028;-79
2023/02/17 07:59:51;;;;;;;4.75;2.10;;;10.40;63.00;;;;;;5038015;28;20494;-88
2023/02/17 08:07:24;;;;;;;7.07;1.80;;;10.50;62.50;;;;;;5432418;22;20121;-83
2023/02/17 08:15:17;;;;;;;6.38;2.20;;;10.50;62.70;;;;;;5076062;28;20108;-74
2023/02/17 08:17:43;;;;;;;3.45;1.65;;;10.60;62.80;;;;;;5057337;28;20056;-78
2023/02/17 08:20:09;;;;;;;6.63;2.20;;;10.60;63.10;;;;;;5075147;28;20067;-81
2023/02/17 08:22:36;;;;;;;4.45;1.95;;;10.50;63.30;;;;;;5057003;28;20028;-78
2023/02/17 08:25:02;;;;;;;4.13;1.52;;;10.60;63.40;;;;;;5057018;28;20031;-77
2023/02/17 08:27:27;;;;;;;3.65;1.60;;;10.60;63.40;;;;;;5040598;28;20127;-77
2023/02/17 08:29:53;;;;;;;3.28;1.83;;;10.60;63.60;;;;;;5057006;28;20451;-78
2023/02/17 08:32:24;;;;;;;6.00;2.22;;;10.60;63.60;;;;;;5057026;28;20020;-81
2023/02/17 08:35:32;;;;;;;4.93;2.60;;;10.60;63.70;;;;;;5429072;22;20016;-75
2023/02/17 08:37:59;;;;;;;7.15;2.15;;;10.60;63.50;;;;;;5072006;28;20056;-79
2023/02/17 08:40:26;;;;;;;4.65;1.85;;;10.60;63.40;;;;;;5040929;28;20037;-81
2023/02/17 08:42:56;;;;;;;5.30;2.40;;;10.70;63.30;;;;;;5057086;28;20398;-78
2023/02/17 08:45:24;;;;;;;4.47;1.95;;;10.70;63.60;;;;;;5057315;28;20021;-78
2023/02/17 08:47:52;;;;;;;6.30;1.92;;;10.80;64.40;;;;;;5040853;28;20086;-80
2023/02/17 08:50:44;;;;;;;2.83;1.95;;;10.80;63.50;;;;;;5056795;28;20509;-83
2023/02/17 08:53:32;;;;;;;4.10;2.00;;;10.70;64.00;;;;;;5048149;28;20041;-82
2023/02/17 08:55:58;;;;;;;3.20;1.75;;;10.80;64.20;;;;;;5052310;28;20116;-76
2023/02/17 08:58:24;;;;;;;2.80;1.58;;;10.80;64.00;;;;;;5056480;28;20025;-74
2023/02/17 09:00:49;;;;;;;6.63;2.70;;;10.90;65.20;;;;;;5056369;28;20036;-73
2023/02/17 09:03:15;;;;;;;4.13;1.83;;;11.20;67.30;;;;;;5074622;28;20082;-76
2023/02/17 09:05:40;;;;;;;5.55;2.08;;;11.40;64.00;;;;;;5074213;28;20111;-74
2023/02/17 09:08:06;;;;;;;6.28;2.17;;;11.60;63.30;;;;;;5074008;28;20083;-75
2023/02/17 09:10:32;;;;;;;5.32;1.85;;;11.60;62.30;;;;;;5073832;28;20043;-77
2023/02/17 09:12:58;;;;;;;3.97;1.80;;;11.60;62.50;;;;;;5055973;28;20016;-74
2023/02/17 09:15:23;;;;;;;4.57;1.60;;;11.60;62.30;;;;;;5055741;28;20020;-76
2023/02/17 09:17:49;;;;;;;6.35;1.98;;;11.70;62.00;;;;;;5073513;28;20029;-74
2023/02/17 09:20:15;;;;;;;6.30;2.13;;;11.70;62.20;;;;;;5055505;28;20476;-74
2023/02/17 09:22:40;;;;;;;3.17;1.55;;;11.90;62.20;;;;;;5055775;28;20032;-75
2023/02/17 09:25:07;;;;;;;2.08;1.42;;;12.20;61.60;;;;;;5073570;28;20035;-76
2023/02/17 09:27:32;;;;;;;6.15;1.85;;;12.40;60.20;;;;;;5073615;28;20025;-75
2023/02/17 09:29:58;;;;;;;6.28;1.98;;;12.60;60.10;;;;;;5055540;28;20434;-74
2023/02/17 09:32:23;;;;;;;5.07;1.52;;;12.70;59.50;;;;;;5073344;28;20132;-75
2023/02/17 09:34:52;;;;;;;2.92;1.85;;;12.60;60.00;;;;;;5055394;28;20020;-76
2023/02/17 09:37:18;;;;;;;3.35;1.23;;;12.50;60.50;;;;;;5072651;28;20040;-74
2023/02/17 09:39:45;;;;;;;5.25;1.55;;;12.70;60.00;;;;;;5054580;28;20048;-76
2023/02/17 09:42:20;;;;;;;4.40;2.17;;;13.00;59.20;;;;;;5055314;28;20028;-75
2023/02/17 09:45:03;;;;;;;2.33;1.30;;;13.10;59.50;;;;;;5055390;28;20048;-74
2023/02/17 09:47:35;;;;;;;5.82;1.63;;;13.20;58.60;;;;;;5073047;28;20020;-74
2023/02/17 09:50:17;;;;;;;4.57;2.08;;;13.30;57.90;;;;;;5072622;28;20024;-75
2023/02/17 09:52:54;;;;;;;7.20;1.50;;;13.40;57.90;;;;;;5055089;28;20115;-77
2023/02/17 09:55:45;;;;;;;7.63;1.40;;;13.40;57.90;;;;;;5055681;28;20025;-76
2023/02/17 09:58:19;;;;;;;4.10;1.58;;;13.40;57.60;;;;;;5055092;28;20129;-76
2023/02/17 10:00:49;;;;;;;4.45;1.83;;;13.30;58.00;;;;;;5061296;28;20060;-76
2023/02/17 10:03:43;;;;;;;3.30;1.15;;;13.20;58.30;;;;;;5053810;28;20052;-77
2023/02/17 10:06:29;;;;;;;7.68;1.70;;;13.50;57.80;;;;;;5073262;28;20032;-76
2023/02/17 10:09:18;;;;;;;5.15;1.40;;;13.60;57.40;;;;;;5055131;28;20020;-74
2023/02/17 10:12:08;;;;;;;8.50;1.45;;;13.80;57.00;;;;;;5055232;28;20504;-79
2023/02/17 10:14:43;;;;;;;7.78;1.60;;;13.60;56.90;;;;;;5055283;28;20029;-75
2023/02/17 10:17:25;;;;;;;3.38;1.10;;;13.50;57.80;;;;;;5055349;28;20027;-76
2023/02/17 10:20:05;;;;;;;2.85;1.27;;;13.40;58.30;;;;;;5073914;28;20033;-76
2023/02/17 10:22:32;;;;;;;1.70;0.93;;;13.00;59.50;;;;;;5073138;28;20060;-78
2023/02/17 10:25:00;;;;;;;2.90;1.15;;;12.70;60.80;;;;;;5055272;28;20024;-76
2023/02/17 10:27:44;;;;;;;3.40;1.10;;;12.50;61.80;;;;;;5054638;28;20425;-76
2023/02/17 10:30:25;;;;;;;3.67;1.50;;;12.50;62.30;;;;;;5054872;28;20024;-78
2023/02/17 10:32:59;;;;;;;4.18;1.30;;;12.40;62.50;;;;;;5054816;28;20025;-77
2023/02/17 10:35:52;;;;;;;4.93;1.30;;;12.40;63.10;;;;;;5054368;28;20092;-76
2023/02/17 10:38:51;;;;;;;5.30;1.70;;;12.50;62.90;;;;;;5067800;28;20044;-77
2023/02/17 10:41:22;;;;;;;5.18;1.88;;;12.40;63.00;;;;;;5054390;28;20037;-77
2023/02/17 10:43:50;;;;;;;4.47;1.42;;;12.30;63.50;;;;;;5057394;28;20021;-75
2023/02/17 10:46:22;;;;;;;3.55;0.98;;;12.30;63.70;;;;;;5074810;28;20082;-75
2023/02/17 10:48:53;;;;;;;3.05;0.82;;;12.20;64.40;;;;;;5074685;28;20428;-76
2023/02/17 10:51:23;;;;;;;7.65;1.40;;;12.20;64.80;;;;;;5074532;28;20082;-77
2023/02/17 10:54:15;;;;;;;4.72;0.98;;;12.00;65.20;;;;;;5074624;28;20498;-75
2023/02/17 10:56:44;;;;;;;5.53;0.75;;;11.90;65.90;;;;;;5092889;28;20028;-77
2023/02/17 10:59:21;;;;;;;3.42;1.00;;;12.00;65.40;;;;;;5074528;28;20156;-76
2023/02/17 11:01:47;;;;;;;1.75;0.80;;;12.10;65.00;;;;;;5092813;28;20042;-75
2023/02/17 11:04:13;;;;;;;3.25;1.10;;;12.10;65.20;;;;;;5092432;28;20028;-76
2023/02/17 11:06:48;;;;;;;4.68;1.27;;;12.20;64.90;;;;;;5074483;28;20031;-78
2023/02/17 11:09:22;;;;;;;2.35;0.90;;;12.40;64.50;;;;;;5074488;28;20031;-76
2023/02/17 11:11:59;;;;;;;3.42;0.90;;;12.80;63.50;;;;;;5092358;28;20047;-76
2023/02/17 11:14:32;;;;;;;7.20;1.27;;;13.60;60.20;;;;;;5092574;28;20028;-77
2023/02/17 11:17:17;;;;;;;3.85;1.35;;;14.00;58.40;;;;;;5093221;28;20073;-76
2023/02/17 11:19:57;;;;;;;1.38;0.80;;;14.30;57.80;;;;;;5078652;28;20513;-78
2023/02/17 11:23:06;;;;;;;1.15;0.70;;;14.50;56.80;;;;;;5078840;28;20032;-77
2023/02/17 11:25:36;;;;;;;3.85;0.90;;;14.50;56.60;;;;;;5078806;28;20043;-77
2023/02/17 11:28:11;;;;;;;5.47;1.27;;;14.50;57.30;;;;;;5078999;28;20024;-80
2023/02/17 11:30:58;;;;;;;1.80;0.90;;;14.30;57.20;;;;;;5097737;28;20062;-80
2023/02/17 11:33:35;;;;;;;2.45;0.85;;;14.30;57.70;;;;;;5058138;28;20350;-78
2023/02/17 11:36:02;;;;;;;2.58;0.70;;;14.00;57.90;;;;;;5076790;28;20044;-78
2023/02/17 11:38:48;;;;;;;3.13;1.20;;;13.80;58.90;;;;;;5077096;28;20469;-78
2023/02/17 11:41:13;;;;;;;;;;;13.80;58.90;;;;;;5058967;28;20036;-76
2023/02/17 11:43:49;;;;;;;;;;;13.90;58.90;;;;;;5061140;28;19912;-75
2023/02/17 11:46:27;;;;;;;2.28;0.70;;;14.00;58.80;;;;;;5075110;28;19904;-75
2023/02/17 11:49:20;;;;;;;3.10;0.70;;;14.20;57.60;;;;;;5058156;28;20491;-74
2023/02/17 11:52:12;;;;;;;2.55;0.77;;;14.10;58.30;;;;;;5057418;28;20048;-75
2023/02/17 11:54:50;;;;;;;5.78;0.82;;;14.00;58.80;;;;;;5057502;28;20115;-75
2023/02/17 11:57:37;;;;;;;3.13;0.80;;;13.80;59.10;;;;;;5057163;28;20035;-77
2023/02/17 12:00:16;;;;;;;1.73;0.60;;;13.40;60.50;;;;;;5074781;28;20032;-79
2023/02/17 12:03:06;;;;;;;0.85;0.60;;;13.50;60.40;;;;;;5056896;28;20071;-74
2023/02/17 12:05:51;;;;;;;4.97;1.00;;;13.40;60.90;;;;;;5057008;28;20020;-76
2023/02/17 12:08:22;;;;;;;2.80;0.70;;;13.10;61.90;;;;;;5057222;28;20052;-79
2023/02/17 12:11:09;;;;;;;3.42;0.73;;;13.00;62.00;;;;;;5057270;28;20571;-82
2023/02/17 12:13:52;;;;;;;2.65;0.50;;;13.00;62.10;;;;;;5056830;28;20025;-81
2023/02/17 12:16:24;;;;;;;2.20;0.80;;;13.20;61.90;;;;;;5056871;28;20016;-83
2023/02/17 12:19:14;;;;;;;2.25;0.80;;;13.30;61.90;;;;;;5057256;28;20035;-84
2023/02/17 12:22:00;;;;;;;2.88;0.70;;;13.30;61.40;;;;;;5057610;28;20128;-84
2023/02/17 12:24:54;;;;;;;2.17;1.00;;;13.30;61.80;;;;;;5057655;28;20025;-83
2023/02/17 12:27:41;;;;;;;4.68;1.00;;;13.40;61.30;;;;;;5048228;28;20059;-83
2023/02/17 12:30:36;;;;;;;2.15;0.80;;;13.60;60.70;;;;;;5056083;28;20025;-79
2023/02/17 12:33:08;;;;;;;2.38;0.60;;;13.70;60.80;;;;;;5047531;28;20039;-76
2023/02/17 12:35:54;;;;;;;1.15;0.70;;;13.50;60.80;;;;;;5056609;28;20087;-75
2023/02/17 12:38:26;;;;;;;3.22;0.50;;;13.30;61.80;;;;;;5056120;28;20024;-75
2023/02/17 12:41:11;;;;;;;3.08;0.80;;;13.20;62.30;;;;;;5056391;28;20446;-77
2023/02/17 12:43:55;;;;;;;2.90;0.68;;;13.00;63.00;;;;;;5056922;28;20020;-80
2023/02/17 12:46:52;;;;;;;1.02;0.60;;;13.10;63.80;;;;;;5056705;28;20036;-78
2023/02/17 12:49:33;;;;;;;3.28;0.80;;;13.10;62.90;;;;;;5048546;28;20025;-78
2023/02/17 12:52:10;;;;;;;1.88;0.50;;;13.10;63.20;;;;;;5074244;28;20055;-78
2023/02/17 12:54:41;;;;;;;1.13;0.55;;;13.10;62.80;;;;;;5056985;28;20021;-80
2023/02/17 12:57:09;;;;;;;2.72;0.70;;;13.10;63.10;;;;;;5056346;28;20096;-81
2023/02/17 12:59:37;;;;;;;6.10;0.60;;;13.10;63.00;;;;;;5056797;28;20115;-79
2023/02/17 13:02:10;;;;;;;1.17;0.80;;;13.30;62.80;;;;;;5056291;28;20171;-81
2023/02/17 13:04:36;;;;;;;1.90;0.70;;;13.20;62.50;;;;;;5056474;28;20350;-82
2023/02/17 13:07:29;;;;;;;1.90;0.55;;;13.20;62.80;;;;;;5056120;28;20032;-81
2023/02/17 13:09:56;;;;;;;0.55;0.52;;;13.30;62.40;;;;;;5055735;28;20032;-76
2023/02/17 13:12:21;;;;;;;2.05;0.50;;;13.30;62.40;;;;;;5056192;28;20031;-77
2023/02/17 13:14:48;;;;;;;4.57;0.82;;;13.30;62.50;;;;;;5055490;28;20017;-78
2023/02/17 13:17:32;;;;;;;5.47;0.85;;;13.50;61.40;;;;;;5054623;28;20403;-77
2023/02/17 13:20:10;;;;;;;0.70;0.50;;;13.30;62.00;;;;;;5052990;28;20021;-79